createdAt,value
2022-09-01T00:01:47.893Z,1.45
2022-09-01T00:04:17.129Z,1.52
2022-09-01T00:06:44.194Z,1.73
2022-09-01T00:09:14.262Z,1.80
2022-09-01T00:11:42.405Z,1.73
2022-09-01T00:14:24.797Z,1.27
2022-09-01T00:16:58.381Z,1.65
2022-09-01T00:19:25.426Z,1.55
2022-09-01T00:21:52.435Z,1.55
2022-09-01T00:24:20.263Z,1.42
2022-09-01T00:26:47.665Z,1.70
2022-09-01T00:29:15.153Z,1.48
2022-09-01T00:31:42.269Z,1.90
2022-09-01T00:34:09.329Z,1.30
2022-09-01T00:36:36.327Z,1.50
2022-09-01T00:39:04.995Z,1.55
2022-09-01T00:41:33.887Z,1.60
2022-09-01T00:44:03.027Z,1.20
2022-09-01T00:49:18.621Z,1.35
2022-09-01T00:51:49.312Z,1.70
2022-09-01T00:54:24.441Z,1.42
2022-09-01T00:56:53.073Z,2.60
2022-09-01T00:59:26.571Z,1.67
2022-09-01T01:01:55.047Z,1.80
2022-09-01T01:04:22.195Z,1.33
2022-09-01T01:06:59.000Z,1.30
2022-09-01T01:09:27.056Z,1.30
2022-09-01T01:11:54.282Z,1.33
2022-09-01T01:14:21.267Z,1.65
2022-09-01T01:16:50.916Z,1.40
2022-09-01T01:19:42.511Z,1.73
2022-09-01T01:22:32.205Z,1.52
2022-09-01T01:25:01.351Z,1.50
2022-09-01T01:30:11.464Z,1.65
2022-09-01T01:32:43.962Z,1.50
2022-09-01T01:35:15.064Z,2.08
2022-09-01T01:37:46.702Z,1.60
2022-09-01T01:40:15.965Z,1.40
2022-09-01T01:42:48.248Z,1.58
2022-09-01T01:45:19.771Z,1.95
2022-09-01T01:47:53.529Z,1.70
2022-09-01T01:50:22.207Z,1.73
2022-09-01T01:52:49.239Z,1.45
2022-09-01T01:55:29.106Z,1.88
2022-09-01T01:57:56.488Z,1.10
2022-09-01T02:00:30.492Z,1.67
2022-09-01T02:02:58.321Z,1.75
2022-09-01T02:05:27.904Z,1.52
2022-09-01T02:08:04.607Z,1.70
2022-09-01T02:10:36.979Z,1.70
2022-09-01T02:13:06.138Z,1.83
2022-09-01T02:18:14.434Z,1.45
2022-09-01T02:20:42.526Z,1.70
2022-09-01T02:23:12.002Z,1.50
2022-09-01T02:26:05.192Z,1.50
2022-09-01T02:28:32.097Z,1.60
2022-09-01T02:33:28.831Z,1.23
2022-09-01T02:36:01.228Z,1.30
2022-09-01T02:38:29.892Z,1.30
2022-09-01T02:40:58.614Z,2.00
2022-09-01T02:43:26.878Z,1.60
2022-09-01T02:45:55.716Z,1.40
2022-09-01T02:48:38.717Z,1.95
2022-09-01T02:51:08.179Z,1.50
2022-09-01T02:53:35.699Z,1.75
2022-09-01T02:56:04.648Z,1.48
2022-09-01T02:58:34.506Z,1.40
2022-09-01T03:01:01.538Z,1.60
2022-09-01T03:03:30.208Z,2.33
2022-09-01T03:05:57.311Z,1.55
2022-09-01T03:08:25.054Z,1.45
2022-09-01T03:10:54.096Z,1.63
2022-09-01T03:13:22.610Z,1.58
2022-09-01T03:15:50.419Z,1.80
2022-09-01T03:18:19.140Z,1.67
2022-09-01T03:20:53.210Z,1.85
2022-09-01T03:23:20.315Z,1.30
2022-09-01T03:25:47.705Z,1.80
2022-09-01T03:28:14.965Z,1.55
2022-09-01T03:30:47.814Z,2.08
2022-09-01T03:33:14.850Z,1.88
2022-09-01T03:35:42.519Z,1.35
2022-09-01T03:38:09.592Z,1.90
2022-09-01T03:40:36.872Z,2.10
2022-09-01T03:43:06.607Z,1.60
2022-09-01T03:45:38.561Z,2.10
2022-09-01T03:48:09.432Z,1.40
2022-09-01T03:50:39.729Z,1.30
2022-09-01T03:53:06.960Z,1.77
2022-09-01T03:55:34.743Z,1.75
2022-09-01T03:58:06.693Z,1.95
2022-09-01T04:00:42.512Z,2.40
2022-09-01T04:03:17.223Z,1.70
2022-09-01T04:05:45.099Z,2.08
2022-09-01T04:08:12.611Z,2.00
2022-09-01T04:10:52.608Z,2.17
2022-09-01T04:13:32.411Z,1.80
2022-09-01T04:15:59.781Z,1.58
2022-09-01T04:18:26.976Z,1.65
2022-09-01T04:20:58.233Z,2.17
2022-09-01T04:23:36.350Z,2.28
2022-09-01T04:26:09.246Z,2.50
2022-09-01T04:28:47.549Z,2.13
2022-09-01T04:31:19.206Z,1.75
2022-09-01T04:33:47.806Z,2.20
2022-09-01T04:36:34.170Z,1.90
2022-09-01T04:39:01.969Z,2.67
2022-09-01T04:41:33.553Z,2.50
2022-09-01T04:44:04.987Z,2.22
2022-09-01T04:46:36.589Z,2.63
2022-09-01T04:49:11.965Z,2.72
2022-09-01T04:51:41.459Z,2.50
2022-09-01T04:54:11.370Z,2.85
2022-09-01T04:56:38.612Z,2.47
2022-09-01T04:59:07.246Z,2.80
2022-09-01T05:01:43.693Z,2.83
2022-09-01T05:04:16.934Z,2.80
2022-09-01T05:06:49.617Z,2.35
2022-09-01T05:09:17.955Z,2.63
2022-09-01T05:11:50.206Z,3.03
2022-09-01T05:14:20.775Z,3.13
2022-09-01T05:16:48.495Z,3.03
2022-09-01T05:19:16.495Z,2.65
2022-09-01T05:21:47.113Z,3.15
2022-09-01T05:24:15.698Z,2.90
2022-09-01T05:26:43.957Z,2.65
2022-09-01T05:29:13.902Z,2.83
2022-09-01T05:31:41.649Z,2.83
2022-09-01T05:34:09.942Z,2.78
2022-09-01T05:36:40.038Z,3.33
2022-09-01T05:39:07.613Z,2.70
2022-09-01T05:41:37.530Z,3.90
2022-09-01T05:44:07.276Z,3.50
2022-09-01T05:46:35.594Z,3.30
2022-09-01T05:49:03.079Z,3.43
2022-09-01T05:51:50.284Z,4.07
2022-09-01T05:54:19.132Z,3.35
2022-09-01T05:56:46.298Z,4.03
2022-09-01T05:59:23.351Z,3.70
2022-09-01T06:01:50.913Z,3.58
2022-09-01T06:04:18.116Z,3.08
2022-09-01T06:07:06.845Z,3.65
2022-09-01T06:09:41.755Z,3.67
2022-09-01T06:12:18.409Z,3.88
2022-09-01T06:14:46.254Z,4.03
2022-09-01T06:17:16.843Z,3.97
2022-09-01T06:19:44.242Z,3.50
2022-09-01T06:22:11.366Z,3.75
2022-09-01T06:24:40.050Z,4.50
2022-09-01T06:27:10.548Z,4.53
2022-09-01T06:29:40.009Z,4.50
2022-09-01T06:32:10.729Z,4.30
2022-09-01T06:34:39.949Z,4.25
2022-09-01T06:37:07.199Z,3.95
2022-09-01T06:39:34.657Z,4.20
2022-09-01T06:42:04.801Z,3.95
2022-09-01T06:44:33.138Z,4.20
2022-09-01T06:47:00.484Z,4.43
2022-09-01T06:49:33.356Z,3.70
2022-09-01T06:52:01.295Z,4.00
2022-09-01T06:54:30.055Z,3.30
2022-09-01T06:56:57.969Z,3.15
2022-09-01T06:59:34.734Z,2.40
2022-09-01T07:04:51.556Z,2.88
2022-09-01T07:10:18.585Z,1.85
2022-09-01T07:13:11.805Z,1.77
2022-09-01T07:18:31.122Z,1.40
2022-09-01T07:21:09.400Z,1.43
2022-09-01T07:26:35.585Z,1.17
2022-09-01T07:29:04.258Z,0.82
2022-09-01T07:31:52.182Z,1.00
2022-09-01T07:34:38.736Z,0.90
2022-09-01T07:39:55.430Z,0.80
2022-09-01T07:42:59.098Z,1.50
2022-09-01T07:45:26.594Z,0.75
2022-09-01T07:47:54.983Z,0.50
2022-09-01T07:50:40.360Z,0.70
2022-09-01T07:53:18.914Z,0.88
2022-09-01T07:55:47.032Z,1.10
2022-09-01T07:58:14.208Z,0.70
2022-09-01T08:00:43.483Z,0.63
2022-09-01T08:03:10.593Z,0.95
2022-09-01T08:05:37.674Z,0.63
2022-09-01T08:08:18.530Z,0.63
2022-09-01T08:10:49.054Z,0.75
2022-09-01T08:13:17.031Z,0.57
2022-09-01T08:18:51.071Z,0.75
2022-09-01T08:21:18.844Z,0.80
2022-09-01T08:23:46.097Z,0.50
2022-09-01T08:26:14.755Z,0.80
2022-09-01T08:28:45.901Z,0.63
2022-09-01T08:31:15.011Z,0.35
2022-09-01T08:33:42.830Z,0.60
2022-09-01T08:36:11.913Z,0.55
2022-09-01T08:41:28.713Z,0.57
2022-09-01T08:44:19.844Z,1.58
2022-09-01T08:46:46.987Z,0.75
2022-09-01T08:49:26.547Z,0.60
2022-09-01T08:52:00.923Z,0.85
2022-09-01T08:54:29.944Z,0.63
2022-09-01T08:57:05.505Z,0.30
2022-09-01T08:59:32.574Z,0.70
2022-09-01T09:02:26.894Z,0.63
2022-09-01T09:05:17.806Z,0.50
2022-09-01T09:08:06.543Z,0.40
2022-09-01T09:10:41.698Z,0.57
2022-09-01T09:13:29.742Z,0.65
2022-09-01T09:16:09.654Z,0.43
2022-09-01T09:19:00.335Z,0.60
2022-09-01T09:21:34.306Z,0.70
2022-09-01T09:24:07.085Z,0.80
2022-09-01T09:26:49.584Z,2.40
2022-09-01T09:29:16.899Z,0.90
2022-09-01T09:31:49.868Z,1.45
2022-09-01T09:34:35.551Z,1.17
2022-09-01T09:37:23.193Z,2.22
2022-09-01T09:40:15.236Z,0.30
2022-09-01T09:43:03.804Z,0.68
2022-09-01T09:45:35.931Z,0.57
2022-09-01T09:48:11.253Z,0.75
2022-09-01T09:50:43.379Z,0.38
2022-09-01T09:53:27.943Z,1.15
2022-09-01T09:56:00.836Z,0.50
2022-09-01T09:58:36.701Z,0.40
2022-09-01T10:01:26.400Z,0.50
2022-09-01T10:03:55.777Z,0.32
2022-09-01T10:06:33.526Z,0.50
2022-09-01T10:09:05.371Z,0.60
2022-09-01T10:11:41.255Z,0.45
2022-09-01T10:14:35.435Z,0.40
2022-09-01T10:17:16.460Z,0.47
2022-09-01T10:19:51.503Z,0.52
2022-09-01T10:22:18.871Z,0.40
2022-09-01T10:24:50.122Z,0.30
2022-09-01T10:27:24.145Z,0.32
2022-09-01T10:30:20.011Z,0.30
2022-09-01T10:32:55.399Z,0.38
2022-09-01T10:35:34.791Z,0.40
2022-09-01T10:38:08.265Z,0.50
2022-09-01T10:40:49.012Z,0.82
2022-09-01T10:43:29.371Z,0.90
2022-09-01T10:46:05.174Z,0.50
2022-09-01T10:48:46.152Z,0.47
2022-09-01T10:51:19.375Z,0.73
2022-09-01T10:53:52.248Z,0.93
2022-09-01T10:56:43.827Z,1.10
2022-09-01T10:59:44.966Z,0.60
2022-09-01T11:02:23.828Z,0.80
2022-09-01T11:04:56.336Z,1.30
2022-09-01T11:07:50.604Z,0.73
2022-09-01T11:10:34.594Z,0.68
2022-09-01T11:13:08.325Z,0.50
2022-09-01T11:15:44.786Z,0.60
2022-09-01T11:18:29.738Z,0.50
2022-09-01T11:21:14.216Z,0.63
2022-09-01T11:23:42.034Z,0.80
2022-09-01T11:26:32.660Z,0.55
2022-09-01T11:28:59.757Z,0.57
2022-09-01T11:31:41.176Z,0.77
2022-09-01T11:34:16.789Z,0.55
2022-09-01T11:36:46.079Z,0.52
2022-09-01T11:39:20.684Z,0.40
2022-09-01T11:42:05.853Z,0.50
2022-09-01T11:44:42.539Z,0.50
2022-09-01T11:47:18.854Z,0.40
2022-09-01T11:50:02.831Z,0.60
2022-09-01T11:52:32.130Z,0.40
2022-09-01T11:54:59.461Z,0.50
2022-09-01T11:57:31.935Z,0.50
2022-09-01T12:00:00.668Z,0.95
2022-09-01T12:02:36.634Z,0.43
2022-09-01T12:05:14.308Z,0.70
2022-09-01T12:07:49.437Z,0.50
2022-09-01T12:14:10.502Z,0.80
2022-09-01T12:16:42.520Z,0.55
2022-09-01T12:19:21.649Z,0.50
2022-09-01T12:24:24.341Z,0.70
2022-09-01T12:26:55.277Z,0.70
2022-09-01T12:29:24.440Z,1.13
2022-09-01T12:31:52.783Z,2.97
2022-09-01T12:34:28.893Z,1.20
2022-09-01T12:37:17.023Z,0.90
2022-09-01T12:39:48.451Z,1.75
2022-09-01T12:42:21.678Z,1.00
2022-09-01T12:44:51.695Z,0.50
2022-09-01T12:47:33.831Z,0.60
2022-09-01T12:50:05.667Z,0.77
2022-09-01T12:52:34.247Z,0.60
2022-09-01T12:55:06.431Z,0.85
2022-09-01T12:57:42.407Z,0.50
2022-09-01T13:00:13.015Z,1.08
2022-09-01T13:02:43.153Z,1.00
2022-09-01T13:05:31.136Z,0.50
2022-09-01T13:08:06.030Z,1.27
2022-09-01T13:10:53.629Z,3.80
2022-09-01T13:13:21.250Z,0.90
2022-09-01T13:15:53.702Z,1.00
2022-09-01T13:18:22.312Z,0.93
2022-09-01T13:20:50.071Z,0.75
2022-09-01T13:23:17.636Z,0.90
2022-09-01T13:25:45.164Z,0.75
2022-09-01T13:28:13.221Z,0.98
2022-09-01T13:30:40.457Z,1.05
2022-09-01T13:33:23.426Z,0.70
2022-09-01T13:35:51.471Z,2.88
2022-09-01T13:38:18.775Z,1.60
2022-09-01T13:40:47.275Z,0.90
2022-09-01T13:43:15.656Z,0.80
2022-09-01T13:45:42.883Z,1.00
2022-09-01T13:48:16.478Z,1.15
2022-09-01T13:53:34.415Z,1.50
2022-09-01T13:56:01.830Z,0.57
2022-09-01T13:58:28.757Z,0.80
2022-09-01T14:00:56.886Z,0.60
2022-09-01T14:03:24.571Z,0.70
2022-09-01T14:05:51.658Z,0.73
2022-09-01T14:08:19.941Z,0.80
2022-09-01T14:10:49.182Z,0.90
2022-09-01T14:15:44.075Z,0.70
2022-09-01T14:18:11.386Z,0.63
2022-09-01T14:20:41.339Z,0.40
2022-09-01T14:23:08.702Z,0.60
2022-09-01T14:25:35.903Z,0.88
2022-09-01T14:28:04.101Z,0.70
2022-09-01T14:30:32.289Z,0.57
2022-09-01T14:33:00.649Z,0.60
2022-09-01T14:35:28.000Z,0.68
2022-09-01T14:37:55.170Z,0.65
2022-09-01T14:40:22.839Z,0.73
2022-09-01T14:42:51.878Z,0.50
2022-09-01T14:47:48.046Z,0.75
2022-09-01T14:50:19.942Z,0.60
2022-09-01T14:52:50.540Z,0.40
2022-09-01T14:55:17.604Z,0.60
2022-09-01T14:57:44.597Z,0.80
2022-09-01T15:00:15.181Z,1.50
2022-09-01T15:02:42.583Z,0.63
2022-09-01T15:05:10.200Z,0.70
2022-09-01T15:07:37.419Z,0.70
2022-09-01T15:10:05.741Z,0.60
2022-09-01T15:12:32.723Z,0.70
2022-09-01T15:15:00.288Z,0.70
2022-09-01T15:17:27.947Z,1.00
2022-09-01T15:19:54.995Z,0.90
2022-09-01T15:22:22.426Z,0.82
2022-09-01T15:24:49.490Z,1.52
2022-09-01T15:27:16.514Z,1.15
2022-09-01T15:29:46.438Z,0.60
2022-09-01T15:32:20.801Z,0.73
2022-09-01T15:34:55.854Z,1.02
2022-09-01T15:37:22.839Z,0.60
2022-09-01T15:39:49.970Z,0.95
2022-09-01T15:42:17.563Z,1.40
2022-09-01T15:44:44.771Z,1.13
2022-09-01T15:48:06.665Z,0.90
2022-09-01T15:50:33.803Z,3.55
2022-09-01T15:53:02.265Z,0.65
2022-09-01T15:55:31.938Z,0.70
2022-09-01T15:57:59.111Z,0.80
2022-09-01T16:00:26.702Z,0.93
2022-09-01T16:02:56.882Z,1.50
2022-09-01T16:05:25.430Z,0.50
2022-09-01T16:07:52.814Z,0.57
2022-09-01T16:10:20.069Z,0.85
2022-09-01T16:12:48.418Z,1.55
2022-09-01T16:15:16.776Z,1.25
2022-09-01T16:17:56.127Z,1.70
2022-09-01T16:20:25.474Z,0.85
2022-09-01T16:22:58.117Z,0.82
2022-09-01T16:25:32.135Z,1.17
2022-09-01T16:28:07.886Z,0.80
2022-09-01T16:30:34.912Z,0.77
2022-09-01T16:33:03.620Z,0.50
2022-09-01T16:35:48.369Z,0.82
2022-09-01T16:38:33.318Z,0.50
2022-09-01T16:41:05.850Z,0.80
2022-09-01T16:43:56.320Z,0.35
2022-09-01T16:46:35.696Z,0.90
2022-09-01T16:49:48.377Z,0.43
2022-09-01T16:52:25.555Z,1.20
2022-09-01T16:55:01.405Z,0.85
2022-09-01T16:57:48.143Z,1.13
2022-09-01T17:00:16.610Z,0.70
2022-09-01T17:03:05.122Z,0.90
2022-09-01T17:05:36.823Z,0.60
2022-09-01T17:08:21.479Z,0.60
2022-09-01T17:10:58.995Z,1.23
2022-09-01T17:13:37.778Z,1.60
2022-09-01T17:16:16.671Z,0.93
2022-09-01T17:19:17.824Z,1.20
2022-09-01T17:21:54.070Z,0.80
2022-09-01T17:24:42.864Z,0.77
2022-09-01T17:27:25.025Z,1.25
2022-09-01T17:29:53.575Z,0.82
2022-09-01T17:33:03.085Z,1.05
2022-09-01T17:35:43.503Z,1.02
2022-09-01T17:38:32.035Z,0.98
2022-09-01T17:41:34.954Z,0.80
2022-09-01T17:44:12.814Z,0.90
2022-09-01T17:46:50.261Z,1.33
2022-09-01T17:49:17.291Z,1.70
2022-09-01T17:51:47.896Z,2.13
2022-09-01T17:54:43.409Z,2.13
2022-09-01T17:57:26.254Z,1.87
2022-09-01T18:00:05.731Z,1.35
2022-09-01T18:02:48.700Z,2.05
2022-09-01T18:05:17.223Z,7.40
2022-09-01T18:07:59.282Z,8.70
2022-09-01T18:10:51.013Z,6.03
2022-09-01T18:13:52.327Z,5.35
2022-09-01T18:16:31.062Z,4.47
2022-09-01T18:19:04.551Z,4.72
2022-09-01T18:21:50.940Z,4.13
2022-09-01T18:24:36.627Z,4.38
2022-09-01T18:27:03.945Z,5.30
2022-09-01T18:29:31.859Z,7.78
2022-09-01T18:32:07.769Z,5.47
2022-09-01T18:34:49.821Z,6.32
2022-09-01T18:37:29.210Z,6.93
2022-09-01T18:40:08.291Z,7.22
2022-09-01T18:45:32.935Z,5.05
2022-09-01T18:48:06.738Z,5.07
2022-09-01T18:50:42.430Z,3.05
2022-09-01T18:53:35.651Z,2.08
2022-09-01T18:56:37.457Z,1.98
2022-09-01T18:59:05.431Z,1.25
2022-09-01T19:01:33.908Z,1.00
2022-09-01T19:04:10.198Z,0.95
2022-09-01T19:06:59.944Z,1.23
2022-09-01T19:09:32.655Z,1.05
2022-09-01T19:12:15.188Z,1.92
2022-09-01T19:15:07.499Z,1.90
2022-09-01T19:17:51.013Z,1.63
2022-09-01T19:20:25.113Z,2.25
2022-09-01T19:22:55.612Z,2.00
2022-09-01T19:25:36.858Z,1.95
2022-09-01T19:28:15.058Z,2.10
2022-09-01T19:30:50.791Z,1.90
2022-09-01T19:33:22.335Z,1.45
2022-09-01T19:35:49.570Z,1.60
2022-09-01T19:38:27.744Z,1.15
2022-09-01T19:41:23.675Z,1.20
2022-09-01T19:43:57.139Z,1.10
2022-09-01T19:46:41.104Z,0.88
2022-09-01T19:49:16.721Z,1.20
2022-09-01T19:51:55.081Z,1.70
2022-09-01T19:54:34.063Z,2.23
2022-09-01T19:57:28.761Z,1.63
2022-09-01T19:59:58.857Z,2.28
2022-09-01T20:02:31.899Z,1.60
2022-09-01T20:05:01.927Z,1.65
2022-09-01T20:07:31.122Z,1.73
2022-09-01T20:13:14.585Z,1.95
2022-09-01T20:16:02.745Z,2.00
2022-09-01T20:18:38.416Z,2.05
2022-09-01T20:21:09.135Z,2.22
2022-09-01T20:23:56.107Z,3.67
2022-09-01T20:26:27.427Z,1.30
2022-09-01T20:29:05.088Z,1.33
2022-09-01T20:31:45.684Z,1.13
2022-09-01T20:34:38.357Z,0.73
2022-09-01T20:37:21.545Z,1.30
2022-09-01T20:40:14.662Z,1.90
2022-09-01T20:42:54.597Z,1.30
2022-09-01T20:45:23.665Z,1.60
2022-09-01T20:47:58.043Z,1.00
2022-09-01T20:50:44.430Z,1.30
2022-09-01T20:53:23.376Z,1.48
2022-09-01T20:55:50.407Z,1.45
2022-09-01T20:58:27.330Z,1.55
2022-09-01T21:01:08.839Z,1.20
2022-09-01T21:03:59.118Z,1.10
2022-09-01T21:06:54.685Z,0.80
2022-09-01T21:09:27.665Z,1.27
2022-09-01T21:12:07.104Z,1.10
2022-09-01T21:14:59.491Z,1.20
2022-09-01T21:17:31.257Z,1.23
2022-09-01T21:20:16.844Z,0.82
2022-09-01T21:22:45.272Z,0.77
2022-09-01T21:25:12.330Z,0.80
2022-09-01T21:27:51.539Z,1.10
2022-09-01T21:30:19.245Z,0.90
2022-09-01T21:32:46.398Z,0.93
2022-09-01T21:35:16.761Z,1.08
2022-09-01T21:37:43.817Z,1.02
2022-09-01T21:40:11.415Z,1.10
2022-09-01T21:43:02.959Z,0.90
2022-09-01T21:45:30.573Z,1.20
2022-09-01T21:47:57.609Z,1.40
2022-09-01T21:50:24.966Z,1.63
2022-09-01T21:52:52.113Z,1.33
2022-09-01T21:55:22.762Z,1.25
2022-09-01T21:57:51.050Z,0.70
2022-09-01T22:00:21.537Z,0.82
2022-09-01T22:02:48.618Z,0.85
2022-09-01T22:05:15.750Z,1.58
2022-09-01T22:07:45.522Z,0.88
2022-09-01T22:10:15.066Z,1.08
2022-09-01T22:12:42.988Z,0.85
2022-09-01T22:15:11.645Z,0.80
2022-09-01T22:17:38.844Z,0.70
2022-09-01T22:20:07.527Z,1.08
2022-09-01T22:22:34.992Z,0.80
2022-09-01T22:25:12.143Z,0.85
2022-09-01T22:27:39.157Z,0.95
2022-09-01T22:30:06.929Z,0.80
2022-09-01T22:32:36.386Z,1.00
2022-09-01T22:35:05.492Z,1.33
2022-09-01T22:39:59.470Z,0.90
2022-09-01T22:42:26.643Z,0.80
2022-09-01T22:44:54.207Z,0.82
2022-09-01T22:47:21.551Z,1.00
2022-09-01T22:49:49.707Z,0.90
2022-09-01T22:52:16.775Z,0.95
2022-09-01T22:54:43.887Z,0.70
2022-09-01T22:57:11.407Z,0.98
2022-09-01T22:59:41.953Z,1.52
2022-09-01T23:02:10.504Z,1.20
2022-09-01T23:04:38.291Z,0.93
2022-09-01T23:07:05.816Z,0.90
2022-09-01T23:09:32.987Z,0.80
2022-09-01T23:12:00.150Z,0.77
2022-09-01T23:14:27.434Z,1.30
2022-09-01T23:16:54.664Z,0.75
2022-09-01T23:19:22.033Z,0.70
2022-09-01T23:21:51.317Z,0.70
2022-09-01T23:24:19.970Z,0.82
2022-09-01T23:26:47.581Z,0.80
2022-09-01T23:29:14.652Z,0.68
2022-09-01T23:31:41.943Z,0.60
2022-09-01T23:34:09.132Z,0.77
2022-09-01T23:36:37.104Z,0.98
2022-09-01T23:39:05.001Z,0.63
2022-09-01T23:41:33.195Z,0.80
2022-09-01T23:44:01.606Z,0.68
2022-09-01T23:46:33.304Z,0.70
2022-09-01T23:49:01.133Z,1.08
2022-09-01T23:51:28.412Z,0.70
2022-09-01T23:53:55.478Z,1.38
2022-09-01T23:56:24.374Z,0.88
2022-09-01T23:58:51.703Z,0.88
